Weather observations for the past three days for
Lewis University Airport
| Date | Time (cdt) | Wind (kph) | Vis. (km) | Weather | Sky Cond. | Temperature (ºC) | Relative Humidity | Wind Chill (°C) | Heat Index (°C) | Pressure | Precipitation (cm) | ||||||
|---|---|---|---|---|---|---|---|---|---|---|---|---|---|---|---|---|---|
| Air | Dwpt | 6 hour | altimeter (cm) | sea level (mb) | 1 hr | 3 hr | 6 hr | ||||||||||
| Max. | Min. | ||||||||||||||||
| 08 | 14:45 | SW 13 | 16.09 | Mostly Cloudy | BKN049 BKN060 | 20 | 7 | 43% | 75.59 | 0.0 | |||||||
| 08 | 13:45 | SW 7 G 20 | 16.09 | Mostly Cloudy | BKN044 BKN070 | 18 | 7 | 49% | 75.64 | 0.0 | |||||||
| 08 | 12:49 | Calm | 16.09 | Partly Cloudy | SCT035 SCT044 SCT050 | 17 | 9 | 60% | 75.69 | 0.0 | |||||||
| 08 | 11:45 | SE 7 | 16.09 | Mostly Cloudy | BKN029 BKN033 | 17 | 10 | 64% | 75.77 | 0.0 | |||||||
| 08 | 10:45 | Calm | 16.09 | Partly Cloudy | FEW024 SCT075 | 15 | 10 | 72% | 75.82 | 0.0 | |||||||
| 08 | 09:45 | Vrbl 6 | 16.09 | Partly Cloudy | SCT019 SCT075 | 15 | 11 | 77% | 75.84 | 0.0 | |||||||
| 08 | 08:45 | S 9 | 16.09 | Mostly Cloudy | FEW065 BKN080 | 12 | 10 | 88% | 75.87 | 0.0 | |||||||
| 08 | 07:45 | E 7 | 16.09 | Mostly Cloudy | SCT075 BKN110 | 10 | 9 | 94% | 9 | 75.84 | 0.0 | ||||||
| 08 | 06:45 | E 6 | 16.09 | Overcast | OVC100 | 9 | 9 | 100% | 75.84 | 0.0 | |||||||
| 08 | 06:15 | N 9 | 16.09 | Overcast | OVC080 | 8 | 8 | 100% | 7 | 75.84 | 0.0 | ||||||
| 08 | 05:55 | Calm | 16.09 | Mostly Cloudy | BKN070 | 8 | 8 | 100% | 75.84 | 0.0 | |||||||
| 08 | 05:30 | S 9 | 16.09 | Overcast | SCT055 BKN065 OVC090 | 8 | 7 | 93% | 7 | 75.84 | 0.0 | ||||||
| 08 | 05:15 | Calm | 16.09 | Overcast | FEW055 BKN075 OVC090 | 8 | 7 | 93% | 75.84 | 0.0 | |||||||
| 08 | 04:55 | Calm | 16.09 | Overcast | FEW075 OVC090 | 8 | 7 | 93% | 75.87 | 0.0 | |||||||
| 08 | 04:35 | Calm | 16.09 | Overcast | OVC095 | 8 | 7 | 93% | 75.84 | 0.0 | |||||||
| 08 | 04:15 | Calm | 16.09 | Overcast | OVC095 | 7 | 6 | 93% | 75.87 | 0.0 | |||||||
| 08 | 03:55 | Calm | 16.09 | Overcast | BKN095 OVC120 | 7 | 6 | 93% | 75.9 | 0.0 | |||||||
| 08 | 03:35 | N 6 | 16.09 | Partly Cloudy | SCT095 | 8 | 6 | 87% | 75.9 | 0.0 | |||||||
| 08 | 03:15 | SW 9 | 16.09 | Partly Cloudy | FEW080 SCT090 | 10 | 6 | 76% | 9 | 75.87 | 0.0 | ||||||
| 08 | 02:35 | W 7 | 16.09 | Mostly Cloudy | FEW060 BKN080 BKN090 | 10 | 7 | 82% | 9 | 75.9 | 0.0 | ||||||
| 08 | 02:10 | SW 9 | 16.09 | Mostly Cloudy | BKN080 BKN090 | 10 | 7 | 82% | 9 | 75.9 | 0.0 | ||||||
| 08 | 01:50 | SW 9 | 16.09 | A Few Clouds | FEW080 | 10 | 7 | 82% | 9 | 75.9 | 0.0 | ||||||
| 08 | 01:35 | W 9 | 16.09 | A Few Clouds | FEW090 | 10 | 7 | 82% | 9 | 75.92 | 0.0 | ||||||
| 08 | 01:15 | SW 13 | 16.09 | A Few Clouds | FEW090 | 10 | 7 | 82% | 8 | 75.92 | 0.0 | ||||||
| 08 | 00:55 | SW 11 | 16.09 | A Few Clouds | FEW090 | 10 | 7 | 82% | 9 | 75.92 | 0.0 | ||||||
| 08 | 00:35 | SW 11 | 16.09 | Partly Cloudy | SCT090 | 10 | 7 | 82% | 9 | 75.9 | 0.0 | ||||||
| 08 | 00:15 | SW 13 | 16.09 | Partly Cloudy | SCT100 | 10 | 6 | 76% | 8 | 75.9 | 0.0 | ||||||
| 07 | 23:55 | SW 11 | 16.09 | A Few Clouds | FEW090 | 11 | 6 | 72% | 75.9 | 0.0 | |||||||
| 07 | 23:35 | SW 9 | 16.09 | Fair | CLR | 10 | 6 | 76% | 9 | 75.9 | 0.0 | ||||||
| 07 | 23:15 | W 9 | 16.09 | Fair | CLR | 11 | 6 | 72% | 75.87 | 0.0 | |||||||
| 07 | 22:55 | SW 11 G 22 | 16.09 | Fair | CLR | 12 | 6 | 67% | 75.87 | 0.0 | |||||||
| 07 | 22:30 | SW 15 | 16.09 | A Few Clouds | FEW080 | 12 | 6 | 67% | 75.84 | 0.0 | |||||||
| 07 | 22:10 | SW 15 | 16.09 | Fair | CLR | 12 | 5 | 63% | 75.84 | 0.0 | |||||||
| 07 | 21:50 | S 11 | 16.09 | A Few Clouds | FEW085 | 12 | 4 | 58% | 75.84 | 0.0 | |||||||
| 07 | 21:35 | SW 11 | 16.09 | A Few Clouds | FEW080 | 11 | 4 | 62% | 75.84 | 0.0 | |||||||
| 07 | 21:15 | S 13 | 16.09 | Partly Cloudy | SCT085 | 10 | 5 | 71% | 8 | 75.84 | 0.0 | ||||||
| 07 | 20:55 | S 11 | 16.09 | Fair | CLR | 10 | 5 | 71% | 9 | 75.82 | 0.0 | ||||||
| 07 | 20:35 | S 7 | 16.09 | Fair | CLR | 11 | 5 | 67% | 75.79 | 0.0 | |||||||
| 07 | 20:15 | S 11 | 16.09 | Fair | CLR | 11 | 5 | 67% | 75.77 | 0.0 | |||||||
| 07 | 19:45 | S 7 | 16.09 | Fair | CLR | 12 | 6 | 67% | 75.77 | 0.0 | |||||||
| 07 | 18:45 | NW 9 | 16.09 | Partly Cloudy | SCT100 | 15 | 4 | 48% | 75.77 | 0.0 | |||||||
| 07 | 17:45 | NW 9 | 16.09 | Overcast | BKN060 OVC090 | 14 | 4 | 51% | 75.77 | 0.0 | |||||||
| 07 | 16:45 | SW 35 G 50 | 16.09 | Mostly Cloudy and Breezy | FEW048 SCT055 BKN065 | 15 | 4 | 48% | 75.77 | 0.0 | |||||||
| 07 | 15:45 | SW 26 G 43 | 16.09 | Partly Cloudy | FEW060 SCT100 | 15 | 4 | 48% | 75.82 | 0.0 | |||||||
| 07 | 14:45 | SW 41 G 61 | 16.09 | Partly Cloudy and Breezy | SCT060 SCT100 | 14 | 4 | 51% | 75.92 | 0.0 | |||||||
| 07 | 13:45 | SW 44 G 61 | 16.09 | Mostly Cloudy and Windy | FEW044 SCT048 BKN060 | 13 | 3 | 51% | 75.97 | 0.0 | |||||||
| 07 | 12:46 | SW 39 G 50 | 16.09 | Light Drizzle and Breezy | FEW047 SCT055 BKN065 | 14 | 0 | 39% | 76 | 0.0 | |||||||
| 07 | 11:45 | SW 20 G 37 | 16.09 | Mostly Cloudy | FEW060 BKN110 | 14 | -1 | 36% | 76.05 | 0.0 | |||||||
| 07 | 10:45 | SW 26 | 16.09 | A Few Clouds | FEW085 | 13 | -1 | 38% | 76.12 | 0.0 | |||||||
| 07 | 09:45 | SW 11 | 16.09 | Fair | CLR | 11 | -1 | 44% | 76.17 | 0.0 | |||||||
| 07 | 08:50 | Vrbl 11 | 16.09 | Partly Cloudy | SCT090 | 9 | -1 | 50% | 8 | 76.2 | 0.0 | ||||||
| 07 | 07:45 | Calm | 16.09 | Fair | CLR | 6 | 1 | 71% | 76.23 | 0.0 | |||||||
| 07 | 06:45 | Calm | 16.09 | Fair | CLR | 2 | 0 | 87% | 76.2 | 0.0 | |||||||
| 07 | 05:45 | Calm | 16.09 | Fair | CLR | 3 | -1 | 75% | 76.2 | 0.0 | |||||||
| 07 | 05:35 | Calm | 16.09 | Fair | CLR | 2 | -1 | 81% | 76.2 | 0.0 | |||||||
| 07 | 05:15 | SW 7 | 16.09 | Fair | CLR | 3 | -1 | 75% | 1 | 76.2 | 0.0 | ||||||
| 07 | 04:55 | W 7 | 16.09 | Fair | CLR | 3 | -2 | 70% | 1 | 76.2 | 0.0 | ||||||
| 07 | 04:35 | SW 7 | 16.09 | Fair | CLR | 3 | -2 | 70% | 1 | 76.2 | 0.0 | ||||||
| 07 | 04:15 | SW 7 | 16.09 | Fair | CLR | 3 | -1 | 75% | 1 | 76.2 | 0.0 | ||||||
| 07 | 03:55 | SW 7 | 16.09 | Fair | CLR | 3 | -1 | 75% | 1 | 76.2 | 0.0 | ||||||
| 07 | 03:35 | Calm | 16.09 | Fair | CLR | 3 | 0 | 81% | 76.2 | 0.0 | |||||||
| 07 | 03:10 | W 7 | 16.09 | Fair | CLR | 4 | 0 | 75% | 2 | 76.2 | 0.0 | ||||||
| 07 | 02:50 | W 6 | 16.09 | Fair | CLR | 4 | 0 | 75% | 76.2 | 0.0 | |||||||
| 07 | 02:30 | W 7 | 16.09 | Fair | CLR | 5 | -1 | 66% | 4 | 76.2 | 0.0 | ||||||
| 07 | 02:15 | W 7 | 16.09 | Fair | CLR | 5 | 0 | 70% | 4 | 76.2 | 0.0 | ||||||
| 07 | 01:55 | W 7 | 16.09 | Fair | CLR | 5 | 0 | 70% | 4 | 76.23 | 0.0 | ||||||
| 07 | 01:35 | W 7 | 16.09 | Fair | CLR | 5 | 0 | 70% | 4 | 76.23 | 0.0 | ||||||
| 07 | 01:15 | W 7 | 16.09 | Fair | CLR | 5 | -1 | 66% | 4 | 76.23 | 0.0 | ||||||
| 07 | 00:55 | W 7 | 16.09 | Fair | CLR | 5 | -1 | 66% | 4 | 76.23 | 0.0 | ||||||
| 07 | 00:35 | W 6 | 16.09 | Fair | CLR | 6 | -2 | 57% | 76.23 | 0.0 | |||||||
| 07 | 00:15 | W 6 | 16.09 | Fair | CLR | 6 | -2 | 57% | 76.23 | 0.0 | |||||||
| 06 | 23:55 | Calm | 16.09 | Fair | CLR | 6 | -2 | 57% | 76.23 | 0.0 | |||||||
| 06 | 23:30 | W 7 | 16.09 | Fair | CLR | 7 | -2 | 53% | 6 | 76.23 | 0.0 | ||||||
| 06 | 23:10 | W 6 | 16.09 | Fair | CLR | 7 | -2 | 53% | 76.23 | 0.0 | |||||||
| 06 | 22:50 | Calm | 16.09 | Fair | CLR | 7 | -3 | 49% | 76.23 | 0.0 | |||||||
| 06 | 22:35 | W 7 | 16.09 | Fair | CLR | 7 | -3 | 49% | 6 | 76.23 | 0.0 | ||||||
| 06 | 22:15 | W 6 | 16.09 | Fair | CLR | 8 | -3 | 46% | 76.23 | 0.0 | |||||||
| 06 | 21:55 | W 6 | 16.09 | Fair | CLR | 8 | -3 | 46% | 76.23 | 0.0 | |||||||
| 06 | 21:35 | W 7 | 16.09 | Fair | CLR | 8 | -3 | 46% | 7 | 76.23 | 0.0 | ||||||
| 06 | 21:15 | NW 11 | 16.09 | Fair | CLR | 8 | -3 | 46% | 6 | 76.2 | 0.0 | ||||||
| 06 | 20:55 | NW 15 | 16.09 | Fair | CLR | 9 | -3 | 43% | 7 | 76.17 | 0.0 | ||||||
| 06 | 20:35 | NW 15 G 26 | 16.09 | Fair | CLR | 9 | -3 | 43% | 7 | 76.15 | 0.0 | ||||||
| 06 | 20:15 | NW 15 G 28 | 16.09 | Fair | CLR | 9 | -4 | 40% | 7 | 76.15 | 0.0 | ||||||
| 06 | 19:45 | W 22 G 37 | 16.09 | Fair | CLR | 11 | -3 | 38% | 76.15 | 0.0 | |||||||
| 06 | 18:45 | W 26 G 43 | 16.09 | Mostly Cloudy | BKN070 | 12 | -3 | 35% | 76.1 | 0.0 | |||||||
| 06 | 17:45 | W 24 G 44 | 16.09 | Mostly Cloudy | BKN070 BKN075 | 13 | -3 | 33% | 76.07 | 0.0 | |||||||
| 06 | 16:45 | W 28 G 48 | 16.09 | Partly Cloudy | SCT070 | 13 | -3 | 33% | 76.05 | 0.0 | |||||||
| 06 | 15:45 | W 31 G 56 | 16.09 | A Few Clouds | FEW070 | 14 | -3 | 31% | 76.05 | 0.0 | |||||||
| 06 | 14:45 | W 24 G 39 | 16.09 | Partly Cloudy | SCT070 | 13 | -3 | 33% | 76.07 | 0.0 | |||||||
| 06 | 13:45 | W 28 G 39 | 16.09 | Overcast | OVC070 | 13 | -2 | 36% | 76.1 | 0.0 | |||||||
| 06 | 12:45 | W 20 G 33 | 16.09 | Overcast | OVC065 | 13 | -1 | 38% | 76.1 | 0.0 | |||||||
| 06 | 11:45 | W 19 G 33 | 16.09 | Partly Cloudy | SCT065 | 12 | -2 | 38% | 76.1 | 0.0 | |||||||
| 06 | 10:45 | W 19 | 16.09 | A Few Clouds | FEW070 | 12 | -2 | 38% | 76.1 | 0.0 | |||||||
| 06 | 09:45 | W 9 | 16.09 | Mostly Cloudy | BKN200 | 11 | -2 | 41% | 76.1 | 0.0 | |||||||
| 06 | 07:45 | Calm | 16.09 | Overcast | OVC200 | 8 | 1 | 62% | 76.02 | 0.0 | |||||||
| 06 | 06:50 | Calm | 16.09 | Fair | CLR | 6 | 2 | 76% | 76 | 0.0 | |||||||
| 06 | 05:45 | Calm | 16.09 | Partly Cloudy | SCT065 | 6 | -1 | 61% | 75.9 | 0.0 | |||||||
| 06 | 05:35 | N 9 | 16.09 | Partly Cloudy | SCT065 | 6 | -1 | 61% | 4 | 75.95 | 0.0 | ||||||
| 06 | 05:15 | N 7 | 16.09 | Partly Cloudy | SCT065 | 5 | -1 | 66% | 4 | 75.9 | 0.0 | ||||||
| 06 | 04:55 | NE 7 | 16.09 | A Few Clouds | FEW075 | 6 | -1 | 61% | 5 | 75.9 | 0.0 | ||||||
| 06 | 04:35 | NE 9 | 16.09 | A Few Clouds | FEW075 | 6 | -1 | 61% | 4 | 75.9 | 0.0 | ||||||
| 06 | 04:15 | N 11 | 16.09 | A Few Clouds | FEW075 | 7 | 0 | 61% | 5 | 75.9 | 0.0 | ||||||
| 06 | 03:50 | N 15 | 16.09 | Fair | CLR | 7 | -1 | 57% | 5 | 75.9 | 0.0 | ||||||
| 06 | 03:30 | NE 11 | 16.09 | Fair | CLR | 7 | -1 | 57% | 5 | 75.9 | 0.0 | ||||||
| 06 | 03:15 | N 13 | 16.09 | Fair | CLR | 6 | -1 | 61% | 4 | 75.87 | 0.0 | ||||||
| 06 | 02:55 | N 13 | 16.09 | Partly Cloudy | SCT065 SCT075 | 7 | -1 | 57% | 5 | 75.87 | 0.0 | ||||||
| 06 | 02:35 | N 15 | 16.09 | Overcast | BKN065 OVC075 | 7 | -1 | 57% | 5 | 75.87 | 0.0 | ||||||
| 06 | 02:15 | N 15 | 16.09 | Overcast | OVC065 | 8 | -1 | 53% | 6 | 75.84 | 0.0 | ||||||
| 06 | 01:55 | N 13 | 16.09 | Overcast | OVC060 | 8 | -1 | 53% | 6 | 75.82 | 0.0 | ||||||
| 06 | 01:35 | N 15 | 16.09 | Overcast | OVC060 | 9 | -1 | 50% | 7 | 75.84 | 0.0 | ||||||
| 06 | 01:15 | NW 13 | 16.09 | Overcast | BKN060 OVC070 | 8 | -1 | 53% | 6 | 75.82 | 0.0 | ||||||
| 06 | 00:55 | N 11 | 16.09 | Overcast | BKN060 OVC070 | 9 | -1 | 50% | 8 | 75.84 | 0.0 | ||||||
| 06 | 00:35 | N 13 | 16.09 | Overcast | BKN060 BKN070 OVC120 | 10 | -1 | 47% | 8 | 75.84 | 0.0 | ||||||
| 06 | 00:10 | N 15 | 16.09 | Mostly Cloudy | SCT060 SCT090 BKN120 | 10 | -1 | 47% | 8 | 75.82 | 0.0 | ||||||
| 05 | 23:50 | N 15 G 26 | 16.09 | Mostly Cloudy | FEW060 FEW065 BKN095 | 11 | -1 | 44% | 75.79 | 0.0 | |||||||
| 05 | 23:30 | NW 9 | 16.09 | Mostly Cloudy | BKN095 BKN120 | 10 | 3 | 62% | 9 | 75.82 | 0.0 | ||||||
| 05 | 23:15 | NW 7 | 16.09 | Overcast | BKN095 OVC120 | 11 | 2 | 54% | 75.79 | 0.0 | |||||||
| 05 | 22:55 | W 7 | 16.09 | Mostly Cloudy | BKN120 | 11 | 1 | 50% | 75.82 | 0.0 | |||||||
| 05 | 22:35 | Calm | 16.09 | A Few Clouds | FEW100 | 11 | 0 | 47% | 75.82 | 0.0 | |||||||
| 05 | 22:15 | Calm | 16.09 | Partly Cloudy | SCT110 | 11 | 0 | 47% | 75.79 | 0.0 | |||||||
| 05 | 21:55 | NW 6 | 16.09 | Overcast | OVC110 | 11 | 1 | 50% | 75.79 | 0.0 | |||||||
| 05 | 21:35 | NW 7 | 16.09 | Overcast | OVC110 | 12 | 0 | 44% | 75.77 | 0.0 | |||||||
| 05 | 21:15 | NW 6 | 16.09 | Overcast | SCT085 OVC110 | 12 | -1 | 41% | 75.77 | 0.0 | |||||||
| 05 | 20:55 | NW 7 | 16.09 | Overcast | BKN075 OVC100 | 12 | -1 | 41% | 75.74 | 0.0 | |||||||
| 05 | 20:35 | NW 7 | 16.09 | Overcast | BKN075 OVC095 | 12 | -1 | 41% | 75.72 | 0.0 | |||||||
| 05 | 20:10 | NW 9 G 19 | 16.09 | Overcast | BKN090 OVC110 | 12 | -1 | 41% | 75.69 | 0.0 | |||||||
| 05 | 19:45 | NW 9 | 16.09 | Mostly Cloudy | BKN110 | 12 | -1 | 41% | 75.67 | 0.0 | |||||||
| 05 | 18:45 | NW 9 G 22 | 16.09 | Mostly Cloudy | BKN110 | 13 | -2 | 36% | 75.64 | 0.0 | |||||||
| 05 | 17:48 | W 20 | 16.09 | A Few Clouds | FEW120 | 13 | -3 | 33% | 75.69 | 0.0 | |||||||
| 05 | 16:46 | W 20 G 31 | 16.09 | Fair | CLR | 13 | -4 | 31% | 75.69 | 0.0 | |||||||
| 05 | 15:45 | W 15 G 26 | 16.09 | Fair | CLR | 13 | -3 | 33% | 75.72 | 0.0 | |||||||
| Date | Time (cdt) | Wind (kph) | Vis. (km) | Weather | Sky Cond. | Air | Dwpt | Max. | Min. | Relative Humidity | Wind Chill (°C) | Heat Index (°C) | altimeter (cm) | sea level (mb) | 1 hr | 3 hr | 6 hr |
| 6 hour | |||||||||||||||||
| Temperature (ºC) | Pressure | Precipitation (cm) | |||||||||||||||